Time;durP1;ratioP1;P1;durP2;ratioP2;P2;SDS_P1;SDS_P2;PMS_P1;PMS_P2;Temp;Humidity;BMP_temperature;BMP_pressure;BME280_temperature;BME280_humidity;BME280_pressure;Samples;Min_cycle;Max_cycle;Signal;HPM_P1;HPM_P2
2022/06/18 00:00:20;;;;;;;;;10.75;10.75;;;;;28.30;36.44;101292.19;5073136;27;45457;-66
2022/06/18 00:02:46;;;;;;;;;12.80;11.40;;;;;28.28;36.94;101289.66;5075936;27;45427;-65
2022/06/18 00:05:15;;;;;;;;;15.00;13.50;;;;;28.25;36.91;101280.91;5076755;27;45424;-66
2022/06/18 00:07:46;;;;;;;;;12.00;12.00;;;;;28.18;36.82;101278.94;5075573;27;45337;-66
2022/06/18 00:10:16;;;;;;;;;10.25;10.25;;;;;28.17;36.61;101277.22;5075158;27;45623;-68
2022/06/18 00:15:29;;;;;;;;;11.80;11.80;;;;;28.13;36.43;101275.91;5075796;28;45412;-65
2022/06/18 00:17:56;;;;;;;;;11.20;11.20;;;;;28.13;36.84;101275.91;5075850;27;45525;-66
2022/06/18 00:20:24;;;;;;;;;11.75;10.75;;;;;28.11;37.11;101269.75;5075895;27;47047;-65
2022/06/18 00:22:55;;;;;;;;;11.40;11.40;;;;;28.06;36.90;101264.00;5074535;27;45353;-65
2022/06/18 00:25:23;;;;;;;;;12.40;12.40;;;;;28.06;37.24;101266.72;5074082;27;45369;-66
2022/06/18 00:27:49;;;;;;;;;12.00;11.60;;;;;28.03;37.10;101266.25;5075267;27;45441;-65
2022/06/18 00:30:19;;;;;;;;;9.00;9.00;;;;;27.99;37.18;101257.53;5076970;27;45453;-66
2022/06/18 00:32:45;;;;;;;;;12.00;11.00;;;;;27.98;37.27;101271.41;5075367;27;46097;-65
2022/06/18 00:35:12;;;;;;;;;9.25;8.75;;;;;27.97;37.60;101269.69;5075967;28;45336;-64
2022/06/18 00:37:39;;;;;;;;;12.75;9.75;;;;;27.94;37.49;101270.06;5076329;27;45408;-65
2022/06/18 00:40:18;;;;;;;;;10.75;10.50;;;;;27.89;37.15;101262.44;5077386;27;45395;-66
2022/06/18 00:42:48;;;;;;;;;12.00;12.00;;;;;27.88;36.80;101264.31;5072585;27;45888;-65
2022/06/18 00:45:18;;;;;;;;;10.20;9.20;;;;;27.89;37.29;101276.09;5076280;27;45433;-65
2022/06/18 00:48:06;;;;;;;;;11.50;10.75;;;;;27.86;37.38;101273.72;5074882;27;45800;-64
2022/06/18 00:50:49;;;;;;;;;10.75;10.75;;;;;27.82;37.33;101272.38;5072038;27;45361;-63
2022/06/18 00:53:20;;;;;;;;;11.50;10.00;;;;;27.80;37.47;101272.56;5096136;27;47402;-65
2022/06/18 00:55:59;;;;;;;;;10.00;8.40;;;;;27.78;37.15;101284.72;5075988;27;45452;-64
2022/06/18 00:58:42;;;;;;;;;10.00;10.00;;;;;27.76;37.65;101273.97;5069918;27;45457;-63
2022/06/18 01:01:21;;;;;;;;;8.75;8.75;;;;;27.73;36.79;101270.72;5075230;28;45495;-64
2022/06/18 01:03:47;;;;;;;;;12.00;12.00;;;;;27.71;37.54;101272.78;5075021;27;45410;-66
2022/06/18 01:06:19;;;;;;;;;10.00;10.00;;;;;27.69;37.98;101277.59;5068556;27;45656;-64
2022/06/18 01:08:46;;;;;;;;;12.00;10.25;;;;;27.62;38.03;101272.84;5056140;28;45538;-65
2022/06/18 01:11:21;;;;;;;;;9.25;9.25;;;;;27.63;37.48;101269.06;5059352;28;45552;-64
2022/06/18 01:13:47;;;;;;;;;9.75;9.75;;;;;27.61;37.59;101265.69;5074908;27;46325;-65
2022/06/18 01:16:13;;;;;;;;;9.20;9.20;;;;;27.60;37.52;101274.03;5072745;27;45388;-64
2022/06/18 01:18:40;;;;;;;;;8.50;8.50;;;;;27.59;37.74;101275.06;5073291;28;45583;-65
2022/06/18 01:21:31;;;;;;;;;12.50;10.75;;;;;27.55;37.68;101266.38;5075363;27;45223;-65
2022/06/18 01:24:11;;;;;;;;;11.75;8.25;;;;;27.55;37.11;101273.72;5070430;27;46869;-66
2022/06/18 01:26:38;;;;;;;;;7.40;7.40;;;;;27.51;37.58;101270.50;5088488;27;45377;-65
2022/06/18 01:29:04;;;;;;;;;9.00;7.00;;;;;27.47;37.62;101252.75;5069658;28;45373;-64
2022/06/18 01:31:30;;;;;;;;;9.50;9.50;;;;;27.48;37.96;101259.94;5074604;27;45476;-64
2022/06/18 01:33:57;;;;;;;;;10.75;10.00;;;;;27.46;37.74;101261.97;5073435;27;46385;-65
2022/06/18 01:36:23;;;;;;;;;8.20;8.20;;;;;27.45;37.89;101257.56;5075919;27;45364;-64
2022/06/18 01:38:49;;;;;;;;;10.60;10.00;;;;;27.43;38.17;101264.22;5077477;27;45451;-65
2022/06/18 01:44:12;;;;;;;;;11.50;10.00;;;;;27.32;38.28;101249.94;5076599;28;45724;-64
2022/06/18 01:46:41;;;;;;;;;11.50;10.75;;;;;27.36;38.20;101255.94;5078279;27;45325;-64
2022/06/18 01:49:12;;;;;;;;;13.25;11.00;;;;;27.32;38.87;101249.09;5079150;28;45302;-68
2022/06/18 01:51:41;;;;;;;;;6.50;6.50;;;;;27.29;38.63;101246.72;5076932;28;45211;-66
2022/06/18 01:54:13;;;;;;;;;11.75;11.75;;;;;27.24;38.78;101235.50;5075233;27;46141;-63
2022/06/18 01:56:46;;;;;;;;;11.50;10.25;;;;;27.24;38.82;101250.00;5078895;27;45346;-64
2022/06/18 01:59:33;;;;;;;;;10.25;10.25;;;;;27.18;38.95;101237.06;5078816;27;45444;-65
2022/06/18 02:01:59;;;;;;;;;12.75;12.75;;;;;27.18;38.84;101242.53;5076438;27;45231;-66
2022/06/18 02:04:27;;;;;;;;;12.00;12.00;;;;;27.14;39.16;101241.19;5077633;27;45505;-65
2022/06/18 02:06:53;;;;;;;;;10.80;9.60;;;;;27.12;39.27;101242.41;5077874;27;46132;-65
2022/06/18 02:09:37;;;;;;;;;10.25;10.25;;;;;27.05;39.98;101228.59;5077675;27;45541;-65
2022/06/18 02:12:09;;;;;;;;;11.00;11.00;;;;;27.06;39.51;101237.63;5077580;27;45398;-64
2022/06/18 02:14:37;;;;;;;;;12.00;11.25;;;;;27.03;39.37;101236.97;5077071;27;45232;-65
2022/06/18 02:17:07;;;;;;;;;11.25;10.25;;;;;27.01;39.65;101235.44;5077246;27;45306;-65
2022/06/18 02:19:35;;;;;;;;;10.25;8.75;;;;;27.01;40.24;101236.28;5078630;27;45325;-66
2022/06/18 02:22:02;;;;;;;;;11.75;10.00;;;;;26.96;39.89;101230.50;5076871;27;45371;-67
2022/06/18 02:24:28;;;;;;;;;11.00;10.00;;;;;26.96;40.19;101235.09;5074989;27;45942;-64
2022/06/18 02:26:54;;;;;;;;;12.00;11.20;;;;;26.96;40.39;101226.91;5076658;28;45390;-66
2022/06/18 02:29:26;;;;;;;;;8.50;8.50;;;;;26.88;40.00;101216.88;5078527;27;45362;-65
2022/06/18 02:31:52;;;;;;;;;12.00;12.00;;;;;26.91;40.16;101230.16;5074167;28;45542;-64
2022/06/18 02:34:23;;;;;;;;;12.75;11.25;;;;;26.88;40.47;101225.06;5077151;27;46295;-64
2022/06/18 02:36:49;;;;;;;;;13.00;11.40;;;;;26.88;40.55;101225.06;5077788;27;45343;-65
2022/06/18 02:39:23;;;;;;;;;11.00;11.00;;;;;26.83;39.95;101222.03;5078195;28;45241;-64
2022/06/18 02:41:48;;;;;;;;;14.75;12.50;;;;;26.85;40.65;101222.69;5076245;28;45362;-64
2022/06/18 02:44:14;;;;;;;;;8.75;8.75;;;;;26.83;40.80;101210.25;5078535;27;46021;-65
2022/06/18 02:46:41;;;;;;;;;15.00;12.50;;;;;26.80;40.43;101208.72;5077663;27;45773;-64
2022/06/18 02:49:10;;;;;;;;;12.60;11.80;;;;;26.78;40.52;101202.56;5072306;28;45398;-64
2022/06/18 02:51:36;;;;;;;;;11.25;11.25;;;;;26.78;40.45;101199.84;5059801;28;45460;-64
2022/06/18 02:54:03;;;;;;;;;8.75;8.75;;;;;26.75;40.80;101192.03;5078371;27;45760;-64
2022/06/18 02:56:28;;;;;;;;;10.50;10.50;;;;;26.71;40.80;101185.22;5076317;27;45268;-63
2022/06/18 02:58:54;;;;;;;;;9.25;9.25;;;;;26.70;40.92;101189.00;5077467;27;45235;-63
2022/06/18 03:01:26;;;;;;;;;10.75;10.75;;;;;26.66;40.69;101176.69;5077300;27;45586;-66
2022/06/18 03:03:57;;;;;;;;;13.00;12.00;;;;;26.65;41.26;101181.31;5073591;27;46916;-63
2022/06/18 03:06:25;;;;;;;;;10.25;10.25;;;;;26.64;41.06;101173.31;5088528;27;47037;-64
2022/06/18 03:08:51;;;;;;;;;10.00;10.00;;;;;26.63;41.12;101177.06;5077843;27;45386;-64
2022/06/18 03:14:05;;;;;;;;;14.25;11.00;;;;;26.57;41.16;101155.97;5071735;28;45267;-65
2022/06/18 03:16:31;;;;;;;;;12.20;12.20;;;;;26.54;41.31;101159.88;5076282;27;45424;-64
2022/06/18 03:18:58;;;;;;;;;11.75;11.00;;;;;26.51;41.17;101149.31;5077674;27;45384;-63
2022/06/18 03:21:35;;;;;;;;;12.75;12.75;;;;;26.50;40.96;101152.22;5076298;27;45424;-65
2022/06/18 03:24:01;;;;;;;;;13.00;10.00;;;;;26.49;41.48;101154.09;5075540;27;45452;-65
2022/06/18 03:26:28;;;;;;;;;12.25;11.00;;;;;26.43;41.34;101144.75;5077104;27;45374;-64
2022/06/18 03:28:54;;;;;;;;;13.00;12.00;;;;;26.41;41.97;101135.88;5078144;27;45382;-65
2022/06/18 03:31:19;;;;;;;;;11.00;11.00;;;;;26.33;41.73;101129.59;5073767;27;45625;-65
2022/06/18 03:33:46;;;;;;;;;9.50;9.50;;;;;26.38;42.07;101136.22;5075819;28;45298;-65
2022/06/18 03:36:12;;;;;;;;;11.50;11.50;;;;;26.34;42.14;101134.84;5077084;28;45515;-63
2022/06/18 03:38:39;;;;;;;;;10.50;10.50;;;;;26.32;41.80;101131.47;5075237;27;45452;-64
2022/06/18 03:41:08;;;;;;;;;16.50;11.75;;;;;26.26;42.40;101136.75;5077839;27;45619;-66
2022/06/18 03:43:34;;;;;;;;;11.50;10.25;;;;;26.26;42.18;101137.59;5075117;27;46163;-67
2022/06/18 03:46:05;;;;;;;;;12.50;12.50;;;;;26.26;42.86;101137.59;5075480;28;46986;-64
2022/06/18 03:48:52;;;;;;;;;15.25;11.75;;;;;26.23;42.37;101135.22;5074146;28;45250;-64
2022/06/18 03:51:18;;;;;;;;;12.00;12.00;;;;;26.20;42.81;101132.84;5077981;27;45325;-64
2022/06/18 03:53:44;;;;;;;;;14.00;12.00;;;;;26.15;43.02;101129.78;5076245;28;46297;-65
2022/06/18 03:56:12;;;;;;;;;10.50;10.50;;;;;26.14;43.51;101133.53;5077029;27;45322;-63
2022/06/18 03:58:39;;;;;;;;;14.50;13.75;;;;;26.11;43.47;101133.91;5076518;27;45440;-63
2022/06/18 04:01:04;;;;;;;;;12.00;12.00;;;;;26.09;43.35;101133.22;5073853;27;45619;-64
2022/06/18 04:03:30;;;;;;;;;11.00;11.00;;;;;26.05;43.68;101132.72;5075547;27;46087;-65
2022/06/18 04:05:55;;;;;;;;;13.50;11.00;;;;;26.05;43.55;101134.59;5075997;27;45513;-64
2022/06/18 04:08:21;;;;;;;;;11.50;11.50;;;;;26.02;43.78;101135.78;5075860;27;45262;-65
2022/06/18 04:10:47;;;;;;;;;13.00;12.00;;;;;26.03;43.45;101137.47;5077040;27;45484;-63
2022/06/18 04:13:14;;;;;;;;;13.75;12.00;;;;;26.01;43.69;101133.22;5073102;27;46571;-64
2022/06/18 04:15:39;;;;;;;;;12.25;11.50;;;;;25.98;43.59;101123.53;5074502;27;45460;-66
2022/06/18 04:18:05;;;;;;;;;12.25;12.25;;;;;25.98;43.77;101122.69;5076867;27;45220;-63
2022/06/18 04:20:34;;;;;;;;;12.25;12.25;;;;;25.97;44.09;101115.53;5075473;27;45350;-64
2022/06/18 04:22:59;;;;;;;;;12.00;11.00;;;;;25.96;44.13;101122.00;5071197;27;46527;-64
2022/06/18 04:25:25;;;;;;;;;11.00;11.00;;;;;25.92;43.30;101112.47;5066452;28;45357;-64
2022/06/18 04:27:54;;;;;;;;;11.25;11.25;;;;;25.91;43.79;101119.78;5077003;27;45332;-65
2022/06/18 04:30:19;;;;;;;;;15.50;14.25;;;;;25.92;44.26;101121.50;5075380;27;45267;-64
2022/06/18 04:32:45;;;;;;;;;11.25;11.25;;;;;25.89;44.16;101113.66;5075539;27;45887;-64
2022/06/18 04:35:13;;;;;;;;;12.25;10.50;;;;;25.86;44.29;101106.69;5076487;27;45315;-64
2022/06/18 04:37:41;;;;;;;;;14.00;12.00;;;;;25.91;43.94;101118.94;5074867;27;45444;-62
2022/06/18 04:40:07;;;;;;;;;14.00;9.75;;;;;25.88;44.29;101126.44;5076963;27;45568;-65
2022/06/18 04:42:33;;;;;;;;;11.25;10.75;;;;;25.90;44.13;101125.41;5073932;28;45361;-64
2022/06/18 04:44:58;;;;;;;;;13.25;12.00;;;;;25.90;43.68;101130.84;5071110;27;45483;-64
2022/06/18 04:47:24;;;;;;;;;14.00;12.25;;;;;25.90;44.23;101118.09;5075515;27;45510;-64
2022/06/18 04:49:50;;;;;;;;;9.75;9.75;;;;;25.83;43.94;101120.66;5076924;27;45468;-65
2022/06/18 04:52:16;;;;;;;;;16.50;16.50;;;;;25.91;44.34;101133.41;5071882;27;45485;-64
2022/06/18 04:54:42;;;;;;;;;12.00;12.00;;;;;25.93;44.35;101145.00;5074720;27;45357;-64
2022/06/18 04:57:07;;;;;;;;;10.50;10.50;;;;;25.93;44.33;101133.25;5076064;28;45425;-63
2022/06/18 04:59:33;;;;;;;;;12.75;12.50;;;;;25.97;45.03;101134.59;5074056;27;45435;-63
2022/06/18 05:02:04;;;;;;;;;11.50;11.50;;;;;25.98;43.77;101130.84;5067697;27;45749;-64
2022/06/18 05:04:29;;;;;;;;;9.75;9.75;;;;;25.98;44.19;101130.84;5076665;27;45267;-63
2022/06/18 05:06:55;;;;;;;;;10.75;10.75;;;;;25.99;44.31;101130.69;5068433;28;45334;-64
2022/06/18 05:09:20;;;;;;;;;13.00;11.50;;;;;26.04;44.27;101132.88;5055299;28;45293;-65
2022/06/18 05:11:46;;;;;;;;;13.50;11.00;;;;;26.00;43.77;101126.94;5071069;28;45384;-64
2022/06/18 05:14:14;;;;;;;;;13.50;11.00;;;;;26.02;44.06;101126.75;5075933;27;45340;-63
2022/06/18 05:16:40;;;;;;;;;10.75;10.75;;;;;26.08;44.08;101126.06;5083826;27;45773;-65
2022/06/18 05:19:06;;;;;;;;;12.00;12.00;;;;;26.12;44.12;101124.69;5075945;27;45600;-65
2022/06/18 05:21:31;;;;;;;;;12.50;11.00;;;;;26.11;43.54;101114.81;5073594;28;46272;-63
2022/06/18 05:23:56;;;;;;;;;10.50;9.75;;;;;26.12;43.75;101113.78;5074116;28;45277;-64
2022/06/18 05:26:22;;;;;;;;;12.25;12.25;;;;;26.17;44.09;101122.28;5076011;27;45337;-64
2022/06/18 05:28:47;;;;;;;;;14.00;11.75;;;;;26.19;43.38;101120.25;5075273;27;45674;-64
2022/06/18 05:31:13;;;;;;;;;11.50;11.50;;;;;26.19;43.68;101114.81;5074520;27;47732;-64
2022/06/18 05:33:38;;;;;;;;;12.25;12.25;;;;;26.23;43.38;101112.56;5072187;27;45508;-65
2022/06/18 05:36:05;;;;;;;;;12.75;11.50;;;;;26.24;43.27;101106.94;5090830;27;45769;-63
2022/06/18 05:38:31;;;;;;;;;13.75;12.75;;;;;26.28;43.46;101115.59;5074843;28;45415;-63
2022/06/18 05:40:59;;;;;;;;;15.00;13.00;;;;;26.25;43.10;101108.63;5073355;28;46226;-65
2022/06/18 05:43:25;;;;;;;;;10.50;9.00;;;;;26.26;43.32;101104.88;5071279;28;45560;-64
2022/06/18 05:45:53;;;;;;;;;14.00;12.75;;;;;26.27;43.31;101101.13;5073250;27;45775;-65
2022/06/18 05:48:18;;;;;;;;;13.00;11.50;;;;;26.29;42.70;101103.66;5069830;27;45696;-69
2022/06/18 05:50:43;;;;;;;;;17.75;11.75;;;;;26.34;43.29;101107.59;5071887;27;45402;-65
2022/06/18 05:53:09;;;;;;;;;14.75;14.75;;;;;26.37;43.21;101107.25;5088770;27;45405;-62
2022/06/18 05:55:34;;;;;;;;;10.25;10.25;;;;;26.42;43.08;101104.84;5074720;27;45341;-65
2022/06/18 05:58:00;;;;;;;;;14.50;13.50;;;;;26.46;42.71;101102.63;5073681;27;45388;-67
2022/06/18 06:00:30;;;;;;;;;12.00;12.00;;;;;26.47;42.46;101092.56;5071707;27;45512;-66
2022/06/18 06:02:56;;;;;;;;;11.75;8.75;;;;;26.51;42.35;101089.31;5073126;27;45708;-64
2022/06/18 06:05:22;;;;;;;;;12.50;12.50;;;;;26.53;42.33;101083.66;5074925;27;45558;-64
2022/06/18 06:07:49;;;;;;;;;13.25;13.25;;;;;26.58;41.89;101092.19;5066822;27;45563;-65
2022/06/18 06:13:09;;;;;;;;;11.00;11.00;;;;;26.63;42.27;101079.69;5075257;27;45368;-65
2022/06/18 06:15:36;;;;;;;;;11.75;11.25;;;;;26.70;42.46;101085.31;5063549;28;45191;-67
2022/06/18 06:18:02;;;;;;;;;10.50;10.50;;;;;26.75;42.06;101088.34;5071000;27;45490;-66
2022/06/18 06:20:31;;;;;;;;;14.00;12.50;;;;;26.82;41.74;101094.75;5068472;27;46840;-64
2022/06/18 06:22:57;;;;;;;;;8.00;8.00;;;;;26.83;41.40;101084.72;5069914;27;45727;-64
2022/06/18 06:25:23;;;;;;;;;17.25;11.25;;;;;26.86;41.19;101082.47;5074138;27;45457;-60
2022/06/18 06:27:48;;;;;;;;;11.75;11.25;;;;;26.87;41.23;101081.44;5096262;27;45289;-59
2022/06/18 06:30:16;;;;;;;;;12.25;11.00;;;;;26.89;41.69;101082.09;5073694;28;46088;-60
2022/06/18 06:32:42;;;;;;;;;12.25;11.75;;;;;26.95;41.07;101086.81;5074299;27;45552;-59
2022/06/18 06:35:09;;;;;;;;;14.50;12.50;;;;;26.96;41.89;101091.28;5078204;27;45485;-59
2022/06/18 06:37:35;;;;;;;;;14.25;12.75;;;;;26.95;40.84;101075.91;5078200;27;45556;-58
2022/06/18 06:40:00;;;;;;;;;13.50;13.50;;;;;27.00;40.89;101091.75;5090052;27;46270;-58
2022/06/18 06:42:26;;;;;;;;;13.00;12.00;;;;;27.02;41.47;101082.38;5077560;27;45233;-60
2022/06/18 06:44:52;;;;;;;;;8.00;8.00;;;;;27.07;40.98;101083.72;5073250;28;46091;-58
2022/06/18 06:47:17;;;;;;;;;12.50;10.75;;;;;27.12;40.91;101084.03;5078003;27;45323;-60
2022/06/18 06:49:42;;;;;;;;;15.00;13.75;;;;;27.16;40.86;101086.22;5073658;28;45695;-59
2022/06/18 06:52:12;;;;;;;;;12.25;12.25;;;;;27.21;40.81;101082.91;5071542;27;45528;-60
2022/06/18 06:54:37;;;;;;;;;12.60;11.80;;;;;27.29;40.71;101099.25;5075624;27;45528;-57
2022/06/18 06:57:21;;;;;;;;;14.50;12.50;;;;;27.29;40.53;101099.25;5075248;27;46715;-60
2022/06/18 06:59:46;;;;;;;;;12.75;12.75;;;;;27.35;39.83;101105.88;5070383;28;45531;-60
2022/06/18 07:02:16;;;;;;;;;12.00;12.00;;;;;27.34;39.85;101102.28;5073222;28;45537;-58
2022/06/18 07:04:43;;;;;;;;;11.75;11.75;;;;;27.38;40.47;101089.97;5073757;27;45235;-60
2022/06/18 07:07:11;;;;;;;;;13.75;12.25;;;;;27.48;39.89;101101.50;5074893;27;45483;-58
2022/06/18 07:09:37;;;;;;;;;15.00;15.00;;;;;27.53;39.76;101096.31;5074750;27;46540;-58
2022/06/18 07:12:03;;;;;;;;;12.75;12.75;;;;;27.58;39.20;101091.16;5082235;27;45475;-61
2022/06/18 07:14:28;;;;;;;;;14.50;11.25;;;;;27.58;39.57;101085.69;5076201;27;45557;-62
2022/06/18 07:16:54;;;;;;;;;15.00;13.00;;;;;27.69;38.71;101089.03;5076860;27;45432;-57
2022/06/18 07:19:20;;;;;;;;;15.25;12.75;;;;;27.78;39.37;101079.72;5075872;27;46509;-61
2022/06/18 07:21:45;;;;;;;;;11.50;11.50;;;;;27.84;39.74;101082.56;5075757;27;45637;-60
2022/06/18 07:24:11;;;;;;;;;13.00;12.00;;;;;27.94;39.42;101090.50;5088582;27;45484;-58
2022/06/18 07:26:36;;;;;;;;;13.75;12.00;;;;;28.00;39.10;101076.09;5075222;28;45305;-59
2022/06/18 07:29:02;;;;;;;;;11.50;11.50;;;;;28.11;39.18;101083.78;5075308;28;47488;-59
2022/06/18 07:31:31;;;;;;;;;12.50;12.50;;;;;28.18;39.00;101082.00;5072890;27;45545;-59
2022/06/18 07:33:58;;;;;;;;;15.00;13.25;;;;;28.21;38.73;101078.03;5073973;27;45933;-58
2022/06/18 07:36:24;;;;;;;;;15.75;15.75;;;;;28.29;38.21;101077.16;5072235;27;45779;-58
2022/06/18 07:38:49;;;;;;;;;13.50;13.50;;;;;28.32;37.74;101076.75;5068572;27;45638;-60
2022/06/18 07:41:18;;;;;;;;;15.25;12.25;;;;;28.36;38.00;101080.81;5073907;28;45553;-63
2022/06/18 07:43:53;;;;;;;;;12.50;12.50;;;;;28.40;37.16;101069.31;5075602;27;45225;-66
2022/06/18 07:46:19;;;;;;;;;15.50;15.00;;;;;28.54;37.80;101075.78;5075648;27;45567;-68
2022/06/18 07:48:44;;;;;;;;;13.75;13.75;;;;;28.63;38.10;101074.63;5076465;27;45327;-64
2022/06/18 07:51:11;;;;;;;;;14.25;14.25;;;;;28.71;37.74;101066.31;5077186;27;45246;-67
2022/06/18 07:53:37;;;;;;;;;12.80;11.60;;;;;28.76;36.67;101066.56;5077393;27;45433;-63
2022/06/18 07:56:04;;;;;;;;;14.80;13.60;;;;;28.87;36.66;101072.59;5077335;27;45381;-63
2022/06/18 07:58:30;;;;;;;;;15.00;13.25;;;;;28.98;36.66;101064.75;5076636;27;47053;-61
2022/06/18 08:00:57;;;;;;;;;13.00;13.00;;;;;29.06;35.81;101056.41;5085602;27;45642;-63
2022/06/18 08:03:23;;;;;;;;;12.00;12.00;;;;;29.16;36.15;101058.78;5078252;27;45167;-59
2022/06/18 08:05:49;;;;;;;;;12.50;12.50;;;;;29.23;35.86;101054.25;5076894;28;45476;-59
2022/06/18 08:08:16;;;;;;;;;15.00;13.00;;;;;29.27;36.65;101041.84;5076329;27;46248;-63
2022/06/18 08:10:45;;;;;;;;;14.20;14.20;;;;;29.40;36.80;101053.97;5086132;27;45344;-64
2022/06/18 08:13:11;;;;;;;;;14.20;12.40;;;;;29.50;36.18;101043.53;5086417;27;45356;-65
2022/06/18 08:15:37;;;;;;;;;17.00;16.25;;;;;29.55;35.92;101046.53;5078214;27;45369;-64
2022/06/18 08:18:02;;;;;;;;;15.50;14.50;;;;;29.65;36.02;101041.53;5077137;27;46148;-65
2022/06/18 08:20:30;;;;;;;;;12.25;11.75;;;;;29.77;35.35;101028.97;5076840;27;45474;-63
2022/06/18 08:22:57;;;;;;;;;13.80;13.80;;;;;29.87;34.82;101028.63;5094543;27;45539;-64
2022/06/18 08:25:26;;;;;;;;;20.50;19.25;;;;;29.97;34.97;101028.25;5078304;27;45515;-65
2022/06/18 08:27:52;;;;;;;;;16.25;15.00;;;;;30.22;35.05;101032.22;5079154;27;46394;-68
2022/06/18 08:30:18;;;;;;;;;13.80;13.00;;;;;30.59;34.59;101028.13;5072754;28;45385;-64
2022/06/18 08:32:44;;;;;;;;;13.00;13.00;;;;;30.92;32.49;101017.25;5077107;27;45267;-67
2022/06/18 08:35:10;;;;;;;;;13.80;12.20;;;;;31.22;33.19;101022.38;5076342;27;45612;-67
2022/06/18 08:37:37;;;;;;;;;14.50;14.50;;;;;31.61;32.66;101014.13;5073396;27;46612;-66
2022/06/18 08:40:34;;;;;;;;;14.20;13.80;;;;;32.08;33.02;101011.28;5085946;27;45432;-68
2022/06/18 08:43:31;;;;;;;;;15.40;14.40;;;;;32.54;31.58;101017.44;5076200;27;45391;-66
2022/06/18 08:46:18;;;;;;;;;13.00;13.00;;;;;32.90;32.41;101009.66;5070637;27;45527;-67
2022/06/18 08:49:37;;;;;;;;;13.20;13.20;;;;;33.22;31.36;101008.56;5075818;27;45416;-62
2022/06/18 08:52:28;;;;;;;;;11.40;9.60;;;;;33.66;30.26;101006.69;5053258;28;45419;-62
2022/06/18 08:55:00;;;;;;;;;13.20;13.20;;;;;33.96;28.67;101002.13;5082850;27;45334;-67
2022/06/18 08:57:40;;;;;;;;;12.20;12.20;;;;;34.22;28.99;100991.84;5072192;28;45455;-64
2022/06/18 09:00:13;;;;;;;;;13.00;13.00;;;;;34.54;29.91;100993.38;5075293;27;46172;-63
2022/06/18 09:02:51;;;;;;;;;12.60;12.20;;;;;34.89;29.09;100992.66;5073563;27;45274;-66
2022/06/18 09:05:32;;;;;;;;;14.80;14.80;;;;;35.21;28.75;100978.53;5075344;28;45294;-64
2022/06/18 09:08:46;;;;;;;;;14.40;14.40;;;;;35.50;28.75;100980.38;5061769;27;45493;-62
2022/06/18 09:11:23;;;;;;;;;12.80;11.60;;;;;35.85;27.89;100971.19;5072788;28;45512;-64
2022/06/18 09:14:10;;;;;;;;;10.00;10.00;;;;;36.11;26.04;100979.00;5075731;27;45408;-63
2022/06/18 09:16:44;;;;;;;;;11.20;9.60;;;;;36.37;27.61;100974.00;5074256;27;47652;-68
2022/06/18 09:19:17;;;;;;;;;16.20;14.80;;;;;36.66;26.60;100970.13;5074142;27;45629;-59
2022/06/18 09:21:51;;;;;;;;;13.40;13.20;;;;;36.85;25.33;100962.44;5072937;27;45520;-64
2022/06/18 09:24:23;;;;;;;;;18.00;17.80;;;;;37.12;24.04;100963.47;5074413;27;45439;-62
2022/06/18 09:26:58;;;;;;;;;13.00;13.00;;;;;37.34;25.31;100962.72;5075795;27;45381;-61
2022/06/18 09:29:42;;;;;;;;;14.00;14.00;;;;;37.58;24.95;100966.97;5074912;27;45449;-64
2022/06/18 09:32:17;;;;;;;;;13.60;11.60;;;;;37.83;24.06;100955.41;5072543;27;46231;-67
2022/06/18 09:34:49;;;;;;;;;10.20;10.20;;;;;38.03;24.20;100957.59;5075116;27;45356;-62
2022/06/18 09:37:33;;;;;;;;;13.20;13.20;;;;;38.21;23.71;100951.72;5083353;27;45260;-61
2022/06/18 09:40:01;;;;;;;;;11.60;10.80;;;;;38.46;23.14;100942.00;5055616;28;45189;-58
2022/06/18 09:43:03;;;;;;;;;17.00;15.20;;;;;38.72;23.49;100945.91;5089706;27;45441;-64
2022/06/18 09:45:33;;;;;;;;;13.20;12.00;;;;;38.83;21.76;100944.88;5094017;27;45295;-66
2022/06/18 09:48:00;;;;;;;;;12.80;11.40;;;;;38.98;21.89;100947.78;5084129;27;45505;-62
2022/06/18 09:50:35;;;;;;;;;9.80;9.80;;;;;39.11;21.63;100929.84;5063510;27;45481;-61
2022/06/18 09:53:16;;;;;;;;;11.00;11.00;;;;;39.33;20.25;100925.00;5072205;27;47910;-66
2022/06/18 09:55:47;;;;;;;;;12.00;11.00;;;;;39.49;21.13;100921.19;5099875;27;45408;-68
2022/06/18 09:58:19;;;;;;;;;11.60;11.60;;;;;39.62;21.14;100908.75;5091084;27;45400;-63
2022/06/18 10:00:47;;;;;;;;;11.00;11.00;;;;;39.81;20.21;100923.84;5069712;28;45553;-64
2022/06/18 10:08:53;;;;;;;;;10.00;10.00;;;;;40.05;19.34;100906.72;5074938;27;45432;-67
2022/06/18 10:11:22;;;;;;;;;9.60;9.60;;;;;40.01;19.08;100905.59;5094736;27;45282;-63
2022/06/18 10:13:59;;;;;;;;;13.20;12.80;;;;;39.95;20.42;100899.13;5067899;27;47642;-67
2022/06/18 10:16:53;;;;;;;;;13.80;12.20;;;;;40.15;19.08;100903.13;5078156;27;45402;-69
2022/06/18 10:19:41;;;;;;;;;9.80;9.80;;;;;40.02;18.47;100891.38;5078741;27;45441;-69
2022/06/18 10:22:31;;;;;;;;;10.60;9.00;;;;;39.95;19.42;100896.34;5076861;27;45496;-66
2022/06/18 10:25:18;;;;;;;;;9.20;7.60;;;;;39.73;19.09;100882.63;5080053;27;46360;-63
2022/06/18 10:27:55;;;;;;;;;9.20;8.00;;;;;39.75;18.67;100879.56;5105725;27;45377;-63
2022/06/18 10:30:33;;;;;;;;;10.80;9.00;;;;;39.69;17.98;100881.47;5077761;27;45361;-68
2022/06/18 10:33:05;;;;;;;;;8.60;8.60;;;;;39.35;18.31;100885.75;5075438;27;45402;-63
2022/06/18 10:35:38;;;;;;;;;8.20;7.20;;;;;39.06;18.46;100876.91;5076943;27;45386;-63
2022/06/18 10:38:23;;;;;;;;;10.80;10.80;;;;;38.82;19.73;100879.25;5076994;27;45518;-62
2022/06/18 10:40:51;;;;;;;;;6.60;6.60;;;;;38.48;18.81;100885.06;5075103;27;45488;-69
2022/06/18 10:43:19;;;;;;;;;8.80;8.80;;;;;38.13;18.59;100876.31;5077081;28;46034;-66
2022/06/18 10:45:53;;;;;;;;;9.20;7.60;;;;;37.82;19.20;100862.13;5075293;27;47077;-62
2022/06/18 10:48:24;;;;;;;;;9.00;9.00;;;;;37.58;19.00;100860.66;5074798;27;45480;-67
2022/06/18 10:50:54;;;;;;;;;11.60;9.00;;;;;37.49;20.42;100857.50;5076175;27;45488;-65
2022/06/18 10:53:23;;;;;;;;;7.80;7.80;;;;;37.29;20.00;100849.75;5075045;27;45913;-65
2022/06/18 10:56:12;;;;;;;;;14.00;11.80;;;;;37.14;19.86;100843.97;5070290;27;45479;-64
2022/06/18 10:58:46;;;;;;;;;11.00;10.20;;;;;37.06;19.81;100836.06;5081821;27;45349;-62
2022/06/18 11:01:14;;;;;;;;;12.00;8.80;;;;;36.92;21.01;100835.59;5074589;27;45548;-64
2022/06/18 11:03:40;;;;;;;;;12.60;11.60;;;;;36.79;21.35;100835.91;5076510;27;45384;-64
2022/06/18 11:06:13;;;;;;;;;11.25;9.50;;;;;36.70;22.07;100838.25;5077817;27;45453;-68
2022/06/18 11:08:53;;;;;;;;;13.40;11.20;;;;;36.58;21.97;100831.97;5076747;27;45285;-65
2022/06/18 11:11:28;;;;;;;;;11.60;11.60;;;;;36.52;22.23;100825.53;5109011;27;45359;-63
2022/06/18 11:13:54;;;;;;;;;15.60;13.60;;;;;36.48;21.50;100815.19;5078388;27;45441;-63
2022/06/18 11:16:26;;;;;;;;;11.25;11.25;;;;;36.35;21.69;100812.75;5076424;27;45433;-62
2022/06/18 11:19:00;;;;;;;;;19.60;18.00;;;;;36.25;22.40;100811.47;5073808;27;45267;-64
2022/06/18 11:21:33;;;;;;;;;12.00;11.20;;;;;36.17;21.35;100811.00;5076493;27;45436;-64
2022/06/18 11:24:17;;;;;;;;;11.40;11.40;;;;;36.14;22.68;100811.53;5109636;27;45683;-60
2022/06/18 11:26:50;;;;;;;;;12.00;10.00;;;;;36.14;22.79;100804.06;5074275;28;47220;-64
2022/06/18 11:29:28;;;;;;;;;11.20;11.20;;;;;36.24;22.03;100807.00;5108522;27;45450;-62
2022/06/18 11:31:56;;;;;;;;;14.20;12.20;;;;;36.23;20.88;100787.88;5076257;27;45356;-58
2022/06/18 11:34:29;;;;;;;;;10.40;9.00;;;;;36.19;22.11;100790.28;5077111;27;45385;-58
2022/06/18 11:36:57;;;;;;;;;12.80;11.80;;;;;36.15;21.74;100788.28;5062652;28;46261;-64
2022/06/18 11:39:38;;;;;;;;;9.00;8.00;;;;;36.11;21.01;100776.88;5076298;27;45519;-62
2022/06/18 11:42:20;;;;;;;;;13.00;11.00;;;;;36.20;21.94;100775.38;5076733;27;45441;-60